createdAt,value
2022-10-29T00:01:45.385Z,14.09
2022-10-29T00:04:13.454Z,13.97
2022-10-29T00:06:40.522Z,14.05
2022-10-29T00:09:07.587Z,14.13
2022-10-29T00:11:34.721Z,13.99
2022-10-29T00:14:02.136Z,14.02
2022-10-29T00:16:36.653Z,14.12
2022-10-29T00:19:07.012Z,14.26
2022-10-29T00:21:35.049Z,14.57
2022-10-29T00:24:03.032Z,14.87
2022-10-29T00:26:32.015Z,14.91
2022-10-29T00:29:00.986Z,14.82
2022-10-29T00:31:29.049Z,14.87
2022-10-29T00:33:56.205Z,14.84
2022-10-29T00:36:26.944Z,14.68
2022-10-29T00:38:54.252Z,14.92
2022-10-29T00:41:28.312Z,14.91
2022-10-29T00:44:22.025Z,14.98
2022-10-29T00:46:56.524Z,14.70
2022-10-29T00:49:24.786Z,14.50
2022-10-29T00:51:52.646Z,14.41
2022-10-29T00:54:19.790Z,14.64
2022-10-29T00:56:52.925Z,14.63
2022-10-29T00:59:19.931Z,14.68
2022-10-29T01:01:49.393Z,14.72
2022-10-29T01:04:18.201Z,14.48
2022-10-29T01:06:52.447Z,14.29
2022-10-29T01:09:20.410Z,14.38
2022-10-29T01:12:32.729Z,14.58
2022-10-29T01:15:32.673Z,14.43
2022-10-29T01:18:13.901Z,14.35
2022-10-29T01:20:58.418Z,14.47
2022-10-29T01:24:04.957Z,14.43
2022-10-29T01:26:54.812Z,14.11
2022-10-29T01:29:59.606Z,14.11
2022-10-29T01:32:40.140Z,14.07
2022-10-29T01:35:31.490Z,14.31
2022-10-29T01:38:22.852Z,14.38
2022-10-29T01:41:08.994Z,14.27
2022-10-29T01:43:50.463Z,14.12
2022-10-29T01:46:36.130Z,14.15
2022-10-29T01:49:33.698Z,14.27
2022-10-29T01:52:05.279Z,14.08
2022-10-29T01:54:32.362Z,14.37
2022-10-29T01:57:03.370Z,14.24
2022-10-29T01:59:36.394Z,14.23
2022-10-29T02:03:02.118Z,14.21
2022-10-29T02:05:57.086Z,13.99
2022-10-29T02:08:57.028Z,13.94
2022-10-29T02:11:59.231Z,13.63
2022-10-29T02:14:45.504Z,13.49
2022-10-29T02:17:12.410Z,13.44
2022-10-29T02:19:39.489Z,13.38
2022-10-29T02:22:06.440Z,13.18
2022-10-29T02:24:33.330Z,13.20
2022-10-29T02:27:09.668Z,13.20
2022-10-29T02:29:41.774Z,13.10
2022-10-29T02:32:15.771Z,13.16
2022-10-29T02:34:54.965Z,13.28
2022-10-29T02:37:21.820Z,13.13
2022-10-29T02:39:48.782Z,12.89
2022-10-29T02:42:15.653Z,12.78
2022-10-29T02:44:42.522Z,13.13
2022-10-29T02:47:11.546Z,13.15
2022-10-29T02:49:40.446Z,12.97
2022-10-29T02:52:09.450Z,13.01
2022-10-29T02:54:43.650Z,12.86
2022-10-29T02:57:17.110Z,12.87
2022-10-29T02:59:46.076Z,12.95
2022-10-29T03:02:17.162Z,13.04
2022-10-29T03:04:47.204Z,13.08
2022-10-29T03:07:14.354Z,12.62
2022-10-29T03:09:41.244Z,12.82
2022-10-29T03:12:08.443Z,12.75
2022-10-29T03:14:35.359Z,12.57
2022-10-29T03:17:02.231Z,12.59
2022-10-29T03:19:29.138Z,12.65
2022-10-29T03:21:56.027Z,12.62
2022-10-29T03:24:26.169Z,12.44
2022-10-29T03:26:54.133Z,12.60
2022-10-29T03:29:24.213Z,12.49
2022-10-29T03:31:57.428Z,12.31
2022-10-29T03:34:24.487Z,11.93
2022-10-29T03:36:51.407Z,11.86
2022-10-29T03:39:18.353Z,12.08
2022-10-29T03:41:48.345Z,12.30
2022-10-29T03:44:16.339Z,12.47
2022-10-29T03:46:46.321Z,12.62
2022-10-29T03:49:13.254Z,12.51
2022-10-29T03:51:40.176Z,12.71
2022-10-29T03:54:07.044Z,12.68
2022-10-29T03:56:33.953Z,12.52
2022-10-29T03:59:00.923Z,12.34
2022-10-29T04:01:28.915Z,12.32
2022-10-29T04:03:55.892Z,12.37
2022-10-29T04:06:35.018Z,12.35
2022-10-29T04:09:12.062Z,12.29
2022-10-29T04:11:40.989Z,12.21
2022-10-29T04:14:26.435Z,12.25
2022-10-29T04:16:53.406Z,12.32
2022-10-29T04:19:20.306Z,12.24
2022-10-29T04:28:36.880Z,12.35
2022-10-29T04:30:25.697Z,12.03
2022-10-29T04:32:58.317Z,12.03
2022-10-29T04:35:29.430Z,12.06
2022-10-29T04:37:56.525Z,11.97
2022-10-29T04:40:24.620Z,11.97
2022-10-29T04:42:51.926Z,11.86
2022-10-29T04:45:19.064Z,11.79
2022-10-29T04:47:46.215Z,11.80
2022-10-29T04:50:13.491Z,11.82
2022-10-29T04:52:40.445Z,11.96
2022-10-29T04:55:08.838Z,11.89
2022-10-29T04:57:35.789Z,11.86
2022-10-29T05:00:03.233Z,11.79
2022-10-29T05:02:30.171Z,11.85
2022-10-29T05:05:05.620Z,11.85
2022-10-29T05:07:34.696Z,11.85
2022-10-29T05:10:02.629Z,11.91
2022-10-29T05:12:29.521Z,11.98
2022-10-29T05:14:56.408Z,12.03
2022-10-29T05:17:23.355Z,11.97
2022-10-29T05:19:50.254Z,12.00
2022-10-29T05:22:17.213Z,12.12
2022-10-29T05:37:36.989Z,11.78
2022-10-29T05:43:24.118Z,11.83
2022-10-29T05:46:07.054Z,11.82
2022-10-29T05:48:36.062Z,11.82
2022-10-29T05:51:09.113Z,11.82
2022-10-29T05:53:36.447Z,11.83
2022-10-29T05:56:03.513Z,11.81
2022-10-29T05:58:32.416Z,11.79
2022-10-29T06:01:10.536Z,11.91
2022-10-29T06:03:48.690Z,11.98
2022-10-29T06:06:15.664Z,12.00
2022-10-29T06:09:04.721Z,12.01
2022-10-29T06:11:38.838Z,12.10
2022-10-29T06:14:05.742Z,12.25
2022-10-29T06:16:32.623Z,12.14
2022-10-29T06:18:59.498Z,12.17
2022-10-29T06:21:26.373Z,12.13
2022-10-29T06:23:54.198Z,12.25
2022-10-29T06:26:21.149Z,12.21
2022-10-29T06:28:48.054Z,12.51
2022-10-29T06:31:16.074Z,12.57
2022-10-29T06:33:42.940Z,12.76
2022-10-29T06:36:09.956Z,12.72
2022-10-29T06:38:37.933Z,12.87
2022-10-29T06:41:05.921Z,12.92
2022-10-29T06:43:32.853Z,13.06
2022-10-29T06:46:01.854Z,13.09
2022-10-29T06:48:28.861Z,13.12
2022-10-29T06:50:58.523Z,13.26
2022-10-29T06:53:25.693Z,13.23
2022-10-29T06:55:52.949Z,13.26
2022-10-29T06:58:21.176Z,13.23
2022-10-29T07:00:50.339Z,13.33
2022-10-29T07:03:19.962Z,13.41
2022-10-29T07:05:47.650Z,13.40
2022-10-29T07:08:14.520Z,13.36
2022-10-29T07:10:41.658Z,13.27
2022-10-29T07:13:09.933Z,13.39
2022-10-29T07:15:36.855Z,13.42
2022-10-29T07:18:06.859Z,13.55
2022-10-29T07:20:45.225Z,13.53
2022-10-29T07:23:13.462Z,13.63
2022-10-29T07:25:41.154Z,13.72
2022-10-29T07:28:18.296Z,13.79
2022-10-29T07:30:45.528Z,13.76
2022-10-29T07:33:12.512Z,13.87
2022-10-29T07:35:39.445Z,13.93
2022-10-29T07:38:10.930Z,13.88
2022-10-29T07:40:40.313Z,14.08
2022-10-29T07:43:09.403Z,13.91
2022-10-29T07:45:36.341Z,14.00
2022-10-29T07:48:07.879Z,14.06
2022-10-29T07:50:38.166Z,14.15
2022-10-29T07:53:06.843Z,14.22
2022-10-29T07:55:36.432Z,14.20
2022-10-29T07:58:08.155Z,14.14
2022-10-29T08:00:38.261Z,14.19
2022-10-29T08:03:06.310Z,14.17
2022-10-29T08:05:34.076Z,14.30
2022-10-29T08:08:01.146Z,14.48
2022-10-29T08:10:30.220Z,14.64
2022-10-29T08:13:00.325Z,14.68
2022-10-29T08:15:32.771Z,14.89
2022-10-29T08:18:00.130Z,15.12
2022-10-29T08:20:30.032Z,15.25
2022-10-29T08:23:01.574Z,15.53
2022-10-29T08:25:29.476Z,15.72
2022-10-29T08:28:04.836Z,15.91
2022-10-29T08:30:32.511Z,16.02
2022-10-29T08:33:00.545Z,16.27
2022-10-29T08:35:29.203Z,16.49
2022-10-29T08:37:56.735Z,16.47
2022-10-29T08:41:27.225Z,16.58
2022-10-29T08:45:00.671Z,16.64
2022-10-29T08:47:32.571Z,16.70
2022-10-29T08:50:28.900Z,16.88
2022-10-29T08:53:19.522Z,16.97
2022-10-29T08:55:45.848Z,17.22
2022-10-29T08:58:54.538Z,17.51
2022-10-29T09:01:23.987Z,17.72
2022-10-29T09:03:51.785Z,17.79
2022-10-29T09:06:54.602Z,17.66
2022-10-29T09:09:43.457Z,17.67
2022-10-29T09:12:52.068Z,17.78
2022-10-29T09:15:37.893Z,18.03
2022-10-29T09:18:13.789Z,18.16
2022-10-29T09:20:51.005Z,18.35
2022-10-29T09:23:46.458Z,18.48
2022-10-29T09:26:24.549Z,18.71
2022-10-29T09:29:35.467Z,18.89
2022-10-29T09:32:17.962Z,19.05
2022-10-29T09:34:52.650Z,19.06
2022-10-29T09:37:39.608Z,18.47
2022-10-29T09:40:25.810Z,18.86
2022-10-29T09:42:54.022Z,19.13
2022-10-29T09:45:32.275Z,19.60
2022-10-29T09:48:20.767Z,19.89
2022-10-29T09:51:06.434Z,20.18
2022-10-29T09:53:33.322Z,20.28
2022-10-29T09:56:00.280Z,20.50
2022-10-29T09:58:28.864Z,20.54
2022-10-29T10:00:58.927Z,20.34
2022-10-29T10:03:29.441Z,20.64
2022-10-29T10:06:08.938Z,20.80
2022-10-29T10:09:05.630Z,20.92
2022-10-29T10:11:42.355Z,20.83
2022-10-29T10:14:22.571Z,21.15
2022-10-29T10:17:01.209Z,21.17
2022-10-29T10:19:31.467Z,21.12
2022-10-29T10:22:04.917Z,21.07
2022-10-29T10:24:37.752Z,21.15
2022-10-29T10:27:19.829Z,21.37
2022-10-29T10:30:13.407Z,21.69
2022-10-29T10:32:41.698Z,21.49
2022-10-29T10:35:32.286Z,21.64
2022-10-29T10:38:08.806Z,21.71
2022-10-29T10:40:36.229Z,21.79
2022-10-29T10:43:06.863Z,22.11
2022-10-29T10:45:40.216Z,21.87
2022-10-29T10:48:11.365Z,22.00
2022-10-29T10:50:38.545Z,21.97
2022-10-29T10:53:20.434Z,21.73
2022-10-29T10:55:53.257Z,21.49
2022-10-29T10:58:50.857Z,21.50
2022-10-29T11:01:42.341Z,21.78
2022-10-29T11:04:27.903Z,21.90
2022-10-29T11:07:01.258Z,21.99
2022-10-29T11:09:35.082Z,22.22
2022-10-29T11:12:11.895Z,22.39
2022-10-29T11:14:47.036Z,22.48
2022-10-29T11:17:33.162Z,22.55
2022-10-29T11:20:08.493Z,22.80
2022-10-29T11:23:22.713Z,22.92
2022-10-29T11:26:00.870Z,22.85
2022-10-29T11:28:41.333Z,22.80
2022-10-29T11:31:43.069Z,22.76
2022-10-29T11:34:37.880Z,22.71
2022-10-29T11:37:36.689Z,22.52
2022-10-29T11:40:43.828Z,22.40
2022-10-29T11:43:17.888Z,22.46
2022-10-29T11:46:18.422Z,22.50
2022-10-29T11:49:15.554Z,22.83
2022-10-29T11:52:21.409Z,22.87
2022-10-29T11:55:28.867Z,22.97
2022-10-29T11:58:10.267Z,22.82
2022-10-29T12:01:13.660Z,22.85
2022-10-29T12:04:11.845Z,22.99
2022-10-29T12:06:54.913Z,22.74
2022-10-29T12:10:16.844Z,22.78
2022-10-29T12:13:00.153Z,22.83
2022-10-29T12:15:35.950Z,22.92
2022-10-29T12:18:23.938Z,23.25
2022-10-29T12:21:17.053Z,23.10
2022-10-29T12:24:29.981Z,23.17
2022-10-29T12:27:25.825Z,23.47
2022-10-29T12:30:02.828Z,23.36
2022-10-29T12:32:33.852Z,23.26
2022-10-29T12:35:29.799Z,23.28
2022-10-29T12:38:18.128Z,23.36
2022-10-29T12:40:50.719Z,23.33
2022-10-29T12:43:26.477Z,23.42
2022-10-29T12:46:21.882Z,23.66
2022-10-29T12:49:24.384Z,23.68
2022-10-29T12:54:47.223Z,23.35
2022-10-29T12:57:14.021Z,23.23
2022-10-29T12:59:44.493Z,23.32
2022-10-29T13:02:44.675Z,23.05
2022-10-29T13:05:11.622Z,23.15
2022-10-29T13:08:04.305Z,23.14
2022-10-29T13:10:34.293Z,23.15
2022-10-29T13:13:16.089Z,23.06
2022-10-29T13:16:00.595Z,23.03
2022-10-29T13:18:49.934Z,23.15
2022-10-29T13:21:56.270Z,23.20
2022-10-29T13:24:24.651Z,23.24
2022-10-29T13:27:17.405Z,23.41
2022-10-29T13:29:51.090Z,23.47
2022-10-29T13:32:37.725Z,23.62
2022-10-29T13:35:25.971Z,23.69
2022-10-29T13:38:08.814Z,23.64
2022-10-29T13:41:00.026Z,23.68
2022-10-29T13:43:28.453Z,23.63
2022-10-29T13:46:22.605Z,23.60
2022-10-29T13:48:52.476Z,23.51
2022-10-29T13:51:36.078Z,23.55
2022-10-29T13:54:22.392Z,23.46
2022-10-29T13:56:59.644Z,23.40
2022-10-29T14:00:09.683Z,23.46
2022-10-29T14:02:42.758Z,23.32
2022-10-29T14:05:37.832Z,23.19
2022-10-29T14:08:37.876Z,23.08
2022-10-29T14:11:28.547Z,23.08
2022-10-29T14:14:01.347Z,23.10
2022-10-29T14:16:34.532Z,23.02
2022-10-29T14:19:33.917Z,23.02
2022-10-29T14:22:00.796Z,22.93
2022-10-29T14:24:37.301Z,22.90
2022-10-29T14:27:08.306Z,22.86
2022-10-29T14:29:35.165Z,22.79
2022-10-29T14:32:19.327Z,22.66
2022-10-29T14:34:50.211Z,22.50
2022-10-29T14:37:25.826Z,22.38
2022-10-29T14:39:58.232Z,22.19
2022-10-29T14:42:40.869Z,22.10
2022-10-29T14:45:25.285Z,21.92
2022-10-29T14:48:09.564Z,22.01
2022-10-29T14:50:37.570Z,22.01
2022-10-29T14:53:25.071Z,21.88
2022-10-29T14:55:52.110Z,21.74
2022-10-29T14:58:31.064Z,21.56
2022-10-29T15:01:09.954Z,21.55
2022-10-29T15:03:37.311Z,21.51
2022-10-29T15:06:26.186Z,21.51
2022-10-29T15:08:59.839Z,21.44
2022-10-29T15:11:38.449Z,21.33
2022-10-29T15:14:36.755Z,21.29
2022-10-29T15:17:11.717Z,21.13
2022-10-29T15:19:45.198Z,21.05
2022-10-29T15:22:24.358Z,20.95
2022-10-29T15:24:53.029Z,20.90
2022-10-29T15:27:21.542Z,20.84
2022-10-29T15:29:49.481Z,20.82
2022-10-29T15:32:18.212Z,20.84
2022-10-29T15:34:55.606Z,20.84
2022-10-29T15:37:31.422Z,20.71
2022-10-29T15:40:13.192Z,20.69
2022-10-29T15:42:40.872Z,20.64
2022-10-29T15:45:07.748Z,20.62
2022-10-29T15:47:40.425Z,20.53
2022-10-29T15:50:13.784Z,20.40
2022-10-29T15:52:45.878Z,20.27
2022-10-29T15:55:32.381Z,20.25
2022-10-29T15:58:22.640Z,20.20
2022-10-29T16:00:51.563Z,20.06
2022-10-29T16:03:23.777Z,19.99
2022-10-29T16:05:56.333Z,19.89
2022-10-29T16:08:33.656Z,19.81
2022-10-29T16:11:05.566Z,19.66
2022-10-29T16:13:33.108Z,19.56
2022-10-29T16:16:00.206Z,19.50
2022-10-29T16:18:27.608Z,19.44
2022-10-29T16:21:00.246Z,19.37
2022-10-29T16:23:27.298Z,19.22
2022-10-29T16:25:54.386Z,19.12
2022-10-29T16:28:22.314Z,19.08
2022-10-29T16:30:54.280Z,18.98
2022-10-29T16:33:21.248Z,18.98
2022-10-29T16:35:48.246Z,18.83
2022-10-29T16:38:17.612Z,18.73
2022-10-29T16:40:45.177Z,18.69
2022-10-29T16:43:12.220Z,18.60
2022-10-29T16:45:41.258Z,18.63
2022-10-29T16:48:08.313Z,18.48
2022-10-29T16:50:35.313Z,18.80
2022-10-29T16:53:10.041Z,18.76
2022-10-29T16:55:40.749Z,18.72
2022-10-29T16:58:12.353Z,18.53
2022-10-29T17:00:39.557Z,18.43
2022-10-29T17:03:11.750Z,18.34
2022-10-29T17:05:42.904Z,18.30
2022-10-29T17:08:10.793Z,18.29
2022-10-29T17:10:37.841Z,18.22
2022-10-29T17:13:07.069Z,18.20
2022-10-29T17:15:34.001Z,18.07
2022-10-29T17:18:01.407Z,17.97
2022-10-29T17:20:28.587Z,17.90
2022-10-29T17:22:55.641Z,17.83
2022-10-29T17:25:22.642Z,17.79
2022-10-29T17:27:49.685Z,18.06
2022-10-29T17:30:16.669Z,18.01
2022-10-29T17:32:43.546Z,17.84
2022-10-29T17:35:10.485Z,17.71
2022-10-29T17:37:37.482Z,17.58
2022-10-29T17:40:08.175Z,17.44
2022-10-29T17:42:35.854Z,17.42
2022-10-29T17:45:02.799Z,17.52
2022-10-29T17:47:30.315Z,17.45
2022-10-29T17:49:57.283Z,17.38
2022-10-29T17:52:24.228Z,17.65
2022-10-29T17:54:51.202Z,17.70
2022-10-29T17:57:18.635Z,17.70
2022-10-29T17:59:46.601Z,17.71
2022-10-29T18:02:13.674Z,17.60
2022-10-29T18:04:40.766Z,17.43
2022-10-29T18:07:07.784Z,17.37
2022-10-29T18:09:34.782Z,17.45
2022-10-29T18:12:01.745Z,17.41
2022-10-29T18:14:28.712Z,17.31
2022-10-29T18:16:55.601Z,17.29
2022-10-29T18:19:23.761Z,17.42
2022-10-29T18:21:50.710Z,17.39
2022-10-29T18:24:19.392Z,17.23
2022-10-29T18:26:50.276Z,17.19
2022-10-29T18:29:18.704Z,17.09
2022-10-29T18:31:46.748Z,16.94
2022-10-29T18:34:15.340Z,16.75
2022-10-29T18:36:43.167Z,16.54
2022-10-29T18:39:10.260Z,16.45
2022-10-29T18:41:37.292Z,16.41
2022-10-29T18:44:04.598Z,16.42
2022-10-29T18:46:31.491Z,16.45
2022-10-29T18:49:00.090Z,16.43
2022-10-29T18:51:31.469Z,16.52
2022-10-29T18:53:59.545Z,16.70
2022-10-29T18:56:28.300Z,16.83
2022-10-29T18:58:56.774Z,17.00
2022-10-29T19:01:27.704Z,16.88
2022-10-29T19:03:57.612Z,16.71
2022-10-29T19:06:28.201Z,16.52
2022-10-29T19:08:56.253Z,16.35
2022-10-29T19:11:25.621Z,16.29
2022-10-29T19:13:54.416Z,16.47
2022-10-29T19:16:21.981Z,16.57
2022-10-29T19:18:54.396Z,16.56
2022-10-29T19:21:21.426Z,16.41
2022-10-29T19:23:48.446Z,16.46
2022-10-29T19:26:18.440Z,16.39
2022-10-29T19:28:47.415Z,16.25
2022-10-29T19:31:26.349Z,16.30
2022-10-29T19:33:56.956Z,16.10
2022-10-29T19:36:25.578Z,16.15
2022-10-29T19:38:52.723Z,16.12
2022-10-29T19:41:19.880Z,16.10
2022-10-29T19:43:47.457Z,16.04
2022-10-29T19:46:24.348Z,15.95
2022-10-29T19:48:53.850Z,16.00
2022-10-29T19:51:21.746Z,15.94
2022-10-29T19:53:51.553Z,15.87
2022-10-29T19:56:19.900Z,15.88
2022-10-29T19:58:47.935Z,15.81
2022-10-29T20:01:18.432Z,15.85
2022-10-29T20:03:46.565Z,15.84
2022-10-29T20:06:14.368Z,15.88
2022-10-29T20:08:41.284Z,15.83
2022-10-29T20:11:08.785Z,15.90
2022-10-29T20:13:36.608Z,16.00
2022-10-29T20:16:20.666Z,16.04
2022-10-29T20:18:48.691Z,16.03
2022-10-29T20:21:16.358Z,15.97
2022-10-29T20:23:44.698Z,16.12
2022-10-29T20:26:12.624Z,16.02
2022-10-29T20:28:39.581Z,15.96
2022-10-29T20:31:24.372Z,15.97
2022-10-29T20:33:58.050Z,15.96
2022-10-29T20:36:28.429Z,16.00
2022-10-29T20:38:55.677Z,15.99
2022-10-29T20:41:23.332Z,15.99
2022-10-29T20:44:00.000Z,16.11
2022-10-29T20:46:27.614Z,16.07
2022-10-29T20:48:54.767Z,16.03
2022-10-29T20:51:23.080Z,15.88
2022-10-29T20:53:51.178Z,15.84
2022-10-29T20:56:21.265Z,15.89
2022-10-29T20:58:48.327Z,15.85
2022-10-29T21:01:18.760Z,15.88
2022-10-29T21:03:47.434Z,15.99
2022-10-29T21:06:17.817Z,16.00
2022-10-29T21:08:46.759Z,16.00
2022-10-29T21:11:16.479Z,15.93
2022-10-29T21:13:46.218Z,15.92
2022-10-29T21:16:29.034Z,15.94
2022-10-29T21:19:01.068Z,15.88
2022-10-29T21:21:30.204Z,16.00
2022-10-29T21:23:58.451Z,15.97
2022-10-29T21:26:27.989Z,15.88
2022-10-29T21:28:57.515Z,15.77
2022-10-29T21:31:24.998Z,15.83
2022-10-29T21:33:52.926Z,15.76
2022-10-29T21:36:22.164Z,15.77
2022-10-29T21:38:49.506Z,15.70
2022-10-29T21:41:17.048Z,15.70
2022-10-29T21:43:45.036Z,15.65
2022-10-29T21:46:12.150Z,15.72
2022-10-29T21:48:44.280Z,15.63
2022-10-29T21:51:14.137Z,15.52
2022-10-29T21:53:45.259Z,15.48
2022-10-29T21:56:17.359Z,15.52
2022-10-29T21:58:45.283Z,15.60
2022-10-29T22:01:17.684Z,15.64
2022-10-29T22:03:47.875Z,15.66
2022-10-29T22:06:28.147Z,15.58
2022-10-29T22:08:59.627Z,15.62
2022-10-29T22:11:28.594Z,15.61
2022-10-29T22:13:56.524Z,15.58
2022-10-29T22:16:24.623Z,15.65
2022-10-29T22:18:51.737Z,15.66
2022-10-29T22:21:23.472Z,15.68
2022-10-29T22:23:56.556Z,15.61
2022-10-29T22:26:27.385Z,15.53
2022-10-29T22:28:54.318Z,15.49
2022-10-29T22:31:23.046Z,15.30
2022-10-29T22:33:50.574Z,15.18
2022-10-29T22:36:23.387Z,15.21
2022-10-29T22:38:55.835Z,15.07
2022-10-29T22:41:26.032Z,14.79
2022-10-29T22:43:53.348Z,14.61
2022-10-29T22:46:22.083Z,14.67
2022-10-29T22:48:49.348Z,14.79
2022-10-29T22:51:21.590Z,15.00
2022-10-29T22:53:49.393Z,15.12
2022-10-29T22:56:20.795Z,15.18
2022-10-29T22:58:48.396Z,14.96
2022-10-29T23:01:22.261Z,15.08
2022-10-29T23:03:49.634Z,15.12
2022-10-29T23:06:23.360Z,15.26
2022-10-29T23:08:56.107Z,15.36
2022-10-29T23:11:26.810Z,15.23
2022-10-29T23:13:57.210Z,15.42
2022-10-29T23:16:27.517Z,15.33
2022-10-29T23:18:59.483Z,15.12
2022-10-29T23:21:26.678Z,14.98
2022-10-29T23:23:54.172Z,15.04
2022-10-29T23:26:23.260Z,15.20
2022-10-29T23:28:51.439Z,15.06
2022-10-29T23:31:24.650Z,14.96
2022-10-29T23:33:54.661Z,14.91
2022-10-29T23:36:24.438Z,15.03
2022-10-29T23:38:57.162Z,14.95
2022-10-29T23:41:24.918Z,14.85
2022-10-29T23:43:51.836Z,14.71
2022-10-29T23:46:25.112Z,14.70
2022-10-29T23:48:53.117Z,14.77
2022-10-29T23:51:23.294Z,14.79
2022-10-29T23:53:53.185Z,14.81
2022-10-29T23:56:23.393Z,14.75
2022-10-29T23:58:52.331Z,14.87
